Time;durP1;ratioP1;P1;durP2;ratioP2;P2;SDS_P1;SDS_P2;PMS_P1;PMS_P2;Temp;Humidity;BMP_temperature;BMP_pressure;BME280_temperature;BME280_humidity;BME280_pressure;Samples;Min_cycle;Max_cycle;Signal;HPM_P1;HPM_P2
2022/07/21 03:00:49;;;;;;;1.10;1.00;;;21.50;85.00;;;;;;5996390;23;21960;-74
2022/07/21 03:03:16;;;;;;;0.93;0.93;;;21.50;85.30;;;;;;4958116;29;20536;-73
2022/07/21 03:05:43;;;;;;;1.00;0.90;;;21.50;86.00;;;;;;4958222;29;20507;-74
2022/07/21 03:08:11;;;;;;;0.90;0.90;;;21.60;85.40;;;;;;4958188;29;20211;-73
2022/07/21 03:10:39;;;;;;;0.90;0.90;;;21.70;85.00;;;;;;4957753;29;20942;-74
2022/07/21 03:13:06;;;;;;;0.90;0.90;;;21.80;84.20;;;;;;4959577;29;20451;-74
2022/07/21 03:15:33;;;;;;;0.90;0.90;;;21.70;84.70;;;;;;4957757;29;20446;-74
2022/07/21 03:18:01;;;;;;;0.70;0.70;;;21.90;84.60;;;;;;4957948;29;20262;-74
2022/07/21 03:20:30;;;;;;;0.80;0.80;;;22.10;83.70;;;;;;4957901;29;20211;-73
2022/07/21 03:22:57;;;;;;;0.83;0.83;;;22.00;83.60;;;;;;4957822;29;20509;-73
2022/07/21 03:25:24;;;;;;;0.87;0.87;;;22.00;84.00;;;;;;4957841;29;20455;-74
2022/07/21 03:27:51;;;;;;;0.90;0.90;;;22.00;83.60;;;;;;4957783;29;20451;-74
2022/07/21 03:30:18;;;;;;;0.80;0.80;;;22.10;83.60;;;;;;4957473;29;20876;-74
2022/07/21 03:32:45;;;;;;;0.83;0.83;;;21.90;83.60;;;;;;4957636;29;20518;-74
2022/07/21 03:35:13;;;;;;;0.80;0.80;;;21.80;84.50;;;;;;4957405;29;20809;-74
2022/07/21 03:37:45;;;;;;;0.80;0.80;;;21.80;84.50;;;;;;4957638;29;20878;-74
2022/07/21 03:40:13;;;;;;;0.80;0.80;;;21.80;84.40;;;;;;4957262;29;20450;-74
2022/07/21 03:42:40;;;;;;;0.90;0.90;;;22.00;84.30;;;;;;4956376;28;20483;-74
2022/07/21 03:45:08;;;;;;;1.00;0.90;;;22.00;83.40;;;;;;4957459;29;20518;-74
2022/07/21 03:47:35;;;;;;;0.90;0.90;;;21.90;83.80;;;;;;4957438;29;20506;-74
2022/07/21 03:50:03;;;;;;;1.07;0.97;;;21.90;84.10;;;;;;4957397;29;20455;-74
2022/07/21 03:52:31;;;;;;;0.93;0.93;;;22.00;83.80;;;;;;4957302;29;20471;-74
2022/07/21 03:55:08;;;;;;;0.80;0.80;;;22.10;83.70;;;;;;4957301;29;20447;-74
2022/07/21 03:57:37;;;;;;;1.00;0.80;;;22.20;83.40;;;;;;4957280;29;20529;-74
2022/07/21 04:00:07;;;;;;;0.90;0.90;;;22.20;83.30;;;;;;4957232;29;20451;-73
2022/07/21 04:02:33;;;;;;;1.10;1.00;;;22.00;83.20;;;;;;4956945;29;20487;-74
2022/07/21 04:05:00;;;;;;;1.00;1.00;;;21.90;84.00;;;;;;4957109;29;20470;-74
2022/07/21 04:07:27;;;;;;;0.90;0.90;;;21.80;84.50;;;;;;4957075;29;20459;-74
2022/07/21 04:09:55;;;;;;;0.97;0.97;;;21.90;84.20;;;;;;4956994;29;20443;-74
2022/07/21 04:12:26;;;;;;;0.90;0.90;;;21.90;84.20;;;;;;4956644;29;20978;-74
2022/07/21 04:14:53;;;;;;;0.80;0.80;;;22.00;83.90;;;;;;4956989;29;20188;-73
2022/07/21 04:17:19;;;;;;;0.87;0.87;;;22.10;83.30;;;;;;4956614;29;20734;-74
2022/07/21 04:19:46;;;;;;;0.90;0.90;;;22.20;82.90;;;;;;4956807;29;20502;-74
2022/07/21 04:22:13;;;;;;;1.20;1.10;;;22.20;82.90;;;;;;4956653;29;20490;-74
2022/07/21 04:24:39;;;;;;;1.10;1.00;;;22.30;82.80;;;;;;4956428;29;21009;-74
2022/07/21 04:27:07;;;;;;;0.95;0.95;;;22.40;82.80;;;;;;4956654;29;20479;-74
2022/07/21 04:29:34;;;;;;;0.93;0.90;;;22.50;82.60;;;;;;4956689;29;20258;-74
2022/07/21 04:32:01;;;;;;;0.90;0.90;;;22.60;81.90;;;;;;4956216;29;20986;-74
2022/07/21 04:34:28;;;;;;;0.80;0.80;;;22.70;81.60;;;;;;4956241;29;20868;-74
2022/07/21 04:36:55;;;;;;;1.00;0.90;;;22.70;81.40;;;;;;4956518;29;20513;-73
2022/07/21 04:39:21;;;;;;;0.90;0.90;;;22.80;81.00;;;;;;4956438;29;20451;-74
2022/07/21 04:41:48;;;;;;;0.90;0.90;;;22.80;80.90;;;;;;4956314;29;20475;-74
2022/07/21 04:44:16;;;;;;;1.07;1.07;;;22.80;80.90;;;;;;4956301;29;20483;-74
2022/07/21 04:46:43;;;;;;;0.90;0.90;;;22.80;80.80;;;;;;4956022;29;20950;-74
2022/07/21 04:49:09;;;;;;;0.90;0.90;;;22.90;80.80;;;;;;4956289;29;20521;-74
2022/07/21 04:51:36;;;;;;;0.90;0.90;;;22.90;80.90;;;;;;4955848;29;21049;-73
2022/07/21 04:54:02;;;;;;;0.90;0.90;;;23.00;80.30;;;;;;4955981;28;20478;-73
2022/07/21 04:56:29;;;;;;;0.73;0.73;;;22.90;80.50;;;;;;4956202;29;20211;-74
2022/07/21 04:58:56;;;;;;;0.80;0.80;;;22.90;80.60;;;;;;4956162;29;20891;-74
2022/07/21 05:01:24;;;;;;;0.90;0.90;;;23.10;80.50;;;;;;4955611;29;21008;-74
2022/07/21 05:03:50;;;;;;;1.23;1.17;;;23.10;80.40;;;;;;4955917;29;20494;-73
2022/07/21 05:06:18;;;;;;;0.87;0.87;;;23.20;80.50;;;;;;4956004;29;20450;-74
2022/07/21 05:08:44;;;;;;;0.80;0.80;;;23.20;80.20;;;;;;4955695;29;21013;-74
2022/07/21 05:11:11;;;;;;;0.90;0.90;;;23.30;79.90;;;;;;4955844;29;20551;-74
2022/07/21 05:13:38;;;;;;;0.87;0.87;;;23.40;80.00;;;;;;4955847;29;20525;-74
2022/07/21 05:16:05;;;;;;;0.93;0.90;;;23.40;79.60;;;;;;4955826;29;20451;-74
2022/07/21 05:18:34;;;;;;;0.97;0.97;;;23.50;79.50;;;;;;4955773;29;20446;-73
2022/07/21 05:21:00;;;;;;;1.03;1.00;;;23.60;79.60;;;;;;4955721;29;20478;-74
2022/07/21 05:23:27;;;;;;;0.90;0.90;;;23.80;79.20;;;;;;4955679;29;20542;-74
2022/07/21 05:25:54;;;;;;;0.80;0.80;;;23.90;78.90;;;;;;4955691;29;20451;-74
2022/07/21 05:28:20;;;;;;;1.00;1.00;;;24.00;79.00;;;;;;4955653;29;20514;-73
2022/07/21 05:30:47;;;;;;;0.90;0.90;;;24.10;78.30;;;;;;4955523;29;20522;-72
2022/07/21 05:33:14;;;;;;;1.20;1.10;;;24.20;77.90;;;;;;4955611;29;20454;-72
2022/07/21 05:35:42;;;;;;;1.00;0.90;;;24.30;77.90;;;;;;4955549;29;20207;-71
2022/07/21 05:38:08;;;;;;;0.83;0.83;;;24.40;76.80;;;;;;4955180;29;20451;-71
2022/07/21 05:40:35;;;;;;;0.90;0.90;;;24.50;76.00;;;;;;4955084;29;20823;-72
2022/07/21 05:43:02;;;;;;;0.70;0.70;;;24.50;76.30;;;;;;4955226;29;20538;-72
2022/07/21 05:45:29;;;;;;;0.80;0.80;;;24.50;76.10;;;;;;4955322;29;20454;-71
2022/07/21 05:47:55;;;;;;;1.00;1.00;;;24.10;76.90;;;;;;4955294;29;20829;-72
2022/07/21 05:50:22;;;;;;;1.03;1.03;;;24.00;77.20;;;;;;4955419;29;20459;-71
2022/07/21 05:52:50;;;;;;;1.00;0.90;;;24.00;78.30;;;;;;4955019;29;20935;-72
2022/07/21 05:55:17;;;;;;;0.90;0.90;;;24.20;78.10;;;;;;4955315;29;20455;-72
2022/07/21 05:57:43;;;;;;;0.90;0.90;;;24.10;77.50;;;;;;4954911;29;20966;-71
2022/07/21 06:00:11;;;;;;;0.90;0.90;;;24.20;76.40;;;;;;4955187;29;20447;-72
2022/07/21 06:02:38;;;;;;;0.80;0.80;;;24.10;77.30;;;;;;4954787;29;20917;-72
2022/07/21 06:05:07;;;;;;;1.00;1.00;;;24.30;77.10;;;;;;4955348;28;20463;-72
2022/07/21 06:07:33;;;;;;;0.80;0.80;;;24.40;76.50;;;;;;4959266;29;20454;-72
2022/07/21 06:10:01;;;;;;;0.90;0.90;;;24.30;77.00;;;;;;4958800;29;20947;-72
2022/07/21 06:12:28;;;;;;;1.00;1.00;;;24.50;76.20;;;;;;4959078;29;20281;-72
2022/07/21 06:14:55;;;;;;;0.90;0.90;;;24.70;76.10;;;;;;4959143;29;20446;-72
2022/07/21 06:17:21;;;;;;;0.80;0.80;;;24.60;75.80;;;;;;4958695;29;20951;-72
2022/07/21 06:19:48;;;;;;;0.80;0.80;;;24.80;75.90;;;;;;4958997;29;20510;-72
2022/07/21 06:22:15;;;;;;;0.97;0.97;;;24.90;74.20;;;;;;4958909;29;20538;-72
2022/07/21 06:24:42;;;;;;;0.80;0.80;;;25.00;74.20;;;;;;4958838;29;20485;-72
2022/07/21 06:27:10;;;;;;;1.10;1.10;;;25.00;73.90;;;;;;4958858;29;20454;-71
2022/07/21 06:29:36;;;;;;;0.90;0.90;;;25.10;73.20;;;;;;4958824;29;20447;-72
2022/07/21 06:32:03;;;;;;;1.00;1.00;;;25.10;73.70;;;;;;4958726;29;20474;-72
2022/07/21 06:34:30;;;;;;;0.95;0.95;;;25.20;73.90;;;;;;4958733;29;20506;-72
2022/07/21 06:36:56;;;;;;;0.90;0.90;;;25.40;74.50;;;;;;4958741;29;20262;-72
2022/07/21 06:39:23;;;;;;;0.90;0.90;;;25.60;74.60;;;;;;4958288;29;20880;-72
2022/07/21 06:41:50;;;;;;;0.90;0.90;;;25.70;74.00;;;;;;4958213;29;20281;-72
2022/07/21 06:44:18;;;;;;;0.80;0.80;;;26.10;73.40;;;;;;4958500;29;20537;-72
2022/07/21 06:46:44;;;;;;;0.80;0.80;;;26.30;71.80;;;;;;4958579;29;20266;-72
2022/07/21 06:49:11;;;;;;;1.00;1.00;;;26.40;71.20;;;;;;4958496;29;20450;-72
2022/07/21 06:51:38;;;;;;;0.93;0.93;;;26.40;70.80;;;;;;4958355;29;20466;-72
2022/07/21 06:54:04;;;;;;;0.90;0.90;;;26.50;70.00;;;;;;4958384;29;20443;-72
2022/07/21 06:56:31;;;;;;;0.80;0.80;;;26.50;70.00;;;;;;4958062;29;21015;-72
2022/07/21 06:58:57;;;;;;;1.10;1.00;;;26.60;70.20;;;;;;4957970;29;20454;-72
2022/07/21 07:01:25;;;;;;;1.42;0.85;;;26.80;69.80;;;;;;4957781;29;20834;-72
2022/07/21 07:03:52;;;;;;;0.80;0.80;;;26.50;68.60;;;;;;4957783;29;20714;-72
2022/07/21 07:06:19;;;;;;;0.90;0.90;;;26.60;70.30;;;;;;4957858;29;21000;-72
2022/07/21 07:08:46;;;;;;;0.93;0.73;;;26.40;69.40;;;;;;4957764;29;20815;-72
2022/07/21 07:11:12;;;;;;;0.93;0.93;;;26.10;69.40;;;;;;4957677;29;20986;-72
2022/07/21 07:13:39;;;;;;;1.00;0.90;;;26.00;69.80;;;;;;4958016;29;20454;-71
2022/07/21 07:16:06;;;;;;;0.93;0.93;;;25.90;69.90;;;;;;4957936;28;20457;-71
2022/07/21 07:18:36;;;;;;;0.88;0.88;;;26.00;70.60;;;;;;4957633;29;20989;-72
2022/07/21 07:21:03;;;;;;;0.90;0.90;;;26.30;68.60;;;;;;4957914;29;20227;-71
2022/07/21 07:23:29;;;;;;;0.87;0.87;;;26.60;68.60;;;;;;4957778;29;20259;-71
2022/07/21 07:25:56;;;;;;;0.90;0.90;;;26.90;68.80;;;;;;4957814;29;20864;-72
2022/07/21 07:28:23;;;;;;;1.00;0.90;;;27.20;67.50;;;;;;4957781;29;20868;-72
2022/07/21 07:30:49;;;;;;;0.80;0.80;;;27.30;67.00;;;;;;4957335;29;20978;-71
2022/07/21 07:33:16;;;;;;;0.90;0.90;;;27.40;67.50;;;;;;4957660;29;20818;-72
2022/07/21 07:35:44;;;;;;;0.90;0.90;;;27.60;68.30;;;;;;4957654;29;20501;-72
2022/07/21 07:38:13;;;;;;;1.00;1.00;;;27.90;68.20;;;;;;4957572;29;20454;-72
2022/07/21 07:40:40;;;;;;;0.83;0.83;;;27.70;64.90;;;;;;4957444;29;20525;-72
2022/07/21 07:43:07;;;;;;;0.80;0.80;;;27.50;65.90;;;;;;4957437;29;20502;-72
2022/07/21 07:45:35;;;;;;;0.90;0.90;;;27.20;65.00;;;;;;4957147;29;20450;-72
2022/07/21 07:48:01;;;;;;;0.83;0.83;;;27.00;66.40;;;;;;4957349;29;20455;-72
2022/07/21 07:50:28;;;;;;;0.80;0.80;;;26.70;65.20;;;;;;4957307;29;20451;-72
2022/07/21 07:52:56;;;;;;;0.70;0.70;;;26.60;67.40;;;;;;4957364;29;20530;-72
2022/07/21 07:55:23;;;;;;;0.80;0.80;;;26.80;67.10;;;;;;4957322;29;20207;-72
2022/07/21 07:57:50;;;;;;;0.80;0.80;;;27.20;64.90;;;;;;4957255;29;20451;-72
2022/07/21 08:00:19;;;;;;;0.73;0.73;;;27.50;63.70;;;;;;4957221;29;20451;-72
2022/07/21 08:02:45;;;;;;;0.70;0.70;;;27.70;62.40;;;;;;4956721;29;20537;-72
2022/07/21 08:05:13;;;;;;;0.90;0.90;;;27.60;62.30;;;;;;4956723;29;21002;-72
2022/07/21 08:07:40;;;;;;;0.90;0.80;;;27.80;62.10;;;;;;4957065;29;20513;-72
2022/07/21 08:10:11;;;;;;;0.90;0.90;;;27.70;62.60;;;;;;4956991;29;20454;-72
2022/07/21 08:12:39;;;;;;;0.80;0.80;;;27.20;62.20;;;;;;4956688;29;20473;-73
2022/07/21 08:15:06;;;;;;;0.90;0.90;;;26.90;63.30;;;;;;4956596;29;20887;-72
2022/07/21 08:17:33;;;;;;;0.70;0.70;;;26.80;63.70;;;;;;4956893;29;20211;-73
2022/07/21 08:20:00;;;;;;;0.90;0.90;;;26.80;63.90;;;;;;4956831;29;20446;-72
2022/07/21 08:22:27;;;;;;;0.70;0.70;;;26.50;66.60;;;;;;4956738;29;20471;-72
2022/07/21 08:24:54;;;;;;;0.80;0.80;;;26.40;64.80;;;;;;4956703;29;20525;-72
2022/07/21 08:27:22;;;;;;;1.00;0.80;;;26.30;65.00;;;;;;4956707;29;20461;-72
2022/07/21 08:29:49;;;;;;;1.00;0.70;;;26.40;66.20;;;;;;4956142;28;20455;-73
2022/07/21 08:32:17;;;;;;;0.90;0.90;;;26.00;64.70;;;;;;4956571;29;20475;-72
2022/07/21 08:34:44;;;;;;;0.83;0.83;;;25.90;65.70;;;;;;4956294;29;20950;-72
2022/07/21 08:37:11;;;;;;;0.70;0.70;;;25.80;65.30;;;;;;4956514;29;20446;-73
2022/07/21 08:39:38;;;;;;;0.70;0.70;;;26.00;65.70;;;;;;4956483;29;20451;-72
2022/07/21 08:42:07;;;;;;;0.70;0.70;;;25.90;64.30;;;;;;4956425;29;20286;-72
2022/07/21 08:44:35;;;;;;;0.90;0.73;;;26.10;66.70;;;;;;4956376;29;20482;-73
2022/07/21 08:47:02;;;;;;;0.70;0.70;;;26.30;64.50;;;;;;4957084;29;20526;-72
2022/07/21 08:49:29;;;;;;;0.70;0.70;;;26.60;62.80;;;;;;4956335;29;20545;-73
2022/07/21 08:51:56;;;;;;;0.70;0.70;;;26.70;61.40;;;;;;4956265;29;20317;-73
2022/07/21 08:54:23;;;;;;;0.80;0.80;;;26.60;63.00;;;;;;4956180;29;20447;-72
2022/07/21 08:56:50;;;;;;;0.80;0.70;;;26.80;63.30;;;;;;4956152;29;20207;-73
2022/07/21 08:59:17;;;;;;;0.80;0.80;;;27.00;62.20;;;;;;4956101;29;20517;-72
2022/07/21 09:01:45;;;;;;;0.70;0.70;;;27.10;61.70;;;;;;4955760;29;20541;-73
2022/07/21 09:04:23;;;;;;;0.80;0.70;;;26.90;63.00;;;;;;4955974;29;20486;-73
2022/07/21 09:06:52;;;;;;;0.80;0.80;;;27.00;61.50;;;;;;4955683;29;20881;-72
2022/07/21 09:09:20;;;;;;;0.90;0.83;;;27.20;61.00;;;;;;4955942;29;20538;-73
2022/07/21 09:11:47;;;;;;;0.77;0.77;;;27.60;60.50;;;;;;4955808;29;20466;-73
2022/07/21 09:14:17;;;;;;;0.70;0.70;;;27.80;61.00;;;;;;4957331;29;20447;-73
2022/07/21 09:16:47;;;;;;;0.80;0.80;;;27.60;60.70;;;;;;4955809;29;20482;-73
2022/07/21 09:19:21;;;;;;;0.80;0.80;;;27.80;61.10;;;;;;4955710;29;20459;-73
2022/07/21 09:21:49;;;;;;;0.80;0.70;;;27.90;60.70;;;;;;4955728;29;20471;-73
2022/07/21 09:24:21;;;;;;;0.80;0.80;;;27.70;58.20;;;;;;4955319;29;20897;-73
2022/07/21 09:27:06;;;;;;;0.90;0.90;;;27.80;60.70;;;;;;4955448;29;20986;-75
2022/07/21 09:29:37;;;;;;;0.70;0.70;;;27.90;58.50;;;;;;4955667;29;20431;-73
2022/07/21 09:32:19;;;;;;;0.93;0.80;;;28.10;57.50;;;;;;4955281;29;20990;-72
2022/07/21 09:34:46;;;;;;;0.80;0.80;;;28.30;57.10;;;;;;4955640;29;20191;-75
2022/07/21 09:37:13;;;;;;;0.70;0.70;;;28.40;57.70;;;;;;4955290;29;20829;-75
2022/07/21 09:39:47;;;;;;;0.70;0.70;;;28.60;57.70;;;;;;4955015;28;20498;-73
2022/07/21 09:42:20;;;;;;;0.70;0.70;;;28.60;58.50;;;;;;4954904;29;20823;-73
2022/07/21 09:44:51;;;;;;;0.80;0.75;;;28.70;56.70;;;;;;4955090;29;20978;-73
2022/07/21 09:47:21;;;;;;;0.80;0.70;;;28.50;56.10;;;;;;4955462;29;20192;-73
2022/07/21 09:49:48;;;;;;;1.15;0.70;;;28.60;55.50;;;;;;4955378;29;20458;-73
2022/07/21 09:52:31;;;;;;;0.80;0.80;;;28.30;56.80;;;;;;4955259;29;20265;-73
2022/07/21 09:54:59;;;;;;;0.80;0.70;;;28.40;57.20;;;;;;4955274;29;20865;-73
2022/07/21 09:57:27;;;;;;;0.70;0.60;;;28.40;56.80;;;;;;4955319;29;20454;-73
2022/07/21 09:59:54;;;;;;;0.70;0.70;;;28.00;56.30;;;;;;4955351;29;20446;-72
2022/07/21 10:02:24;;;;;;;0.80;0.80;;;27.80;56.10;;;;;;4954812;29;20486;-71
2022/07/21 10:04:59;;;;;;;0.73;0.73;;;27.80;56.90;;;;;;4955109;29;20494;-72
2022/07/21 10:07:26;;;;;;;0.70;0.70;;;28.00;56.80;;;;;;4955269;29;20438;-72
2022/07/21 10:09:54;;;;;;;0.70;0.70;;;28.20;55.80;;;;;;4955192;29;20459;-72
2022/07/21 10:12:22;;;;;;;0.90;0.90;;;28.10;56.40;;;;;;4955183;29;20467;-72
2022/07/21 10:14:48;;;;;;;0.70;0.70;;;28.30;55.70;;;;;;4955145;29;20443;-72
2022/07/21 10:17:16;;;;;;;0.80;0.77;;;27.90;55.80;;;;;;4956219;29;20455;-72
2022/07/21 10:20:01;;;;;;;0.90;0.90;;;28.10;56.40;;;;;;4955140;29;20462;-72
2022/07/21 10:22:37;;;;;;;0.70;0.70;;;28.30;54.10;;;;;;4955106;29;20470;-72
2022/07/21 10:25:04;;;;;;;0.70;0.60;;;28.30;55.40;;;;;;4955070;29;20893;-72
2022/07/21 10:27:31;;;;;;;0.70;0.67;;;28.40;54.70;;;;;;4955052;29;20529;-72
2022/07/21 10:30:00;;;;;;;0.70;0.60;;;28.70;54.30;;;;;;4955060;29;20450;-72
2022/07/21 10:32:29;;;;;;;0.70;0.70;;;28.80;52.80;;;;;;4954709;29;21073;-72
2022/07/21 10:35:00;;;;;;;0.80;0.80;;;28.70;53.70;;;;;;4955032;29;20825;-72
2022/07/21 10:37:50;;;;;;;0.70;0.70;;;28.90;55.70;;;;;;4954908;29;20435;-73
2022/07/21 10:40:41;;;;;;;0.70;0.70;;;28.70;51.60;;;;;;4940009;29;20873;-72
2022/07/21 10:43:37;;;;;;;0.90;0.90;;;28.40;55.50;;;;;;4940200;29;20466;-72
2022/07/21 10:46:03;;;;;;;0.70;0.70;;;28.60;54.70;;;;;;4954856;29;20674;-72
2022/07/21 10:48:48;;;;;;;0.80;0.80;;;28.80;52.40;;;;;;4954553;29;20800;-72
2022/07/21 10:51:17;;;;;;;0.70;0.70;;;28.70;51.00;;;;;;4955270;28;20537;-72
2022/07/21 10:53:46;;;;;;;0.90;0.70;;;28.60;52.30;;;;;;4958419;29;20502;-72
2022/07/21 10:56:28;;;;;;;0.70;0.70;;;28.30;51.70;;;;;;4958455;29;20449;-72
2022/07/21 10:58:54;;;;;;;0.80;0.80;;;28.00;55.10;;;;;;4958450;29;20489;-73
2022/07/21 11:01:24;;;;;;;0.80;0.67;;;28.00;55.10;;;;;;4958058;29;20293;-72
2022/07/21 11:04:08;;;;;;;0.80;0.80;;;28.20;51.90;;;;;;4957938;29;20857;-73
2022/07/21 11:06:38;;;;;;;0.80;0.80;;;28.50;55.10;;;;;;4958256;29;20427;-72
2022/07/21 11:09:22;;;;;;;0.70;0.70;;;28.60;52.90;;;;;;4958130;29;20465;-73
2022/07/21 11:12:00;;;;;;;0.70;0.60;;;28.90;54.10;;;;;;4958078;29;20470;-72
2022/07/21 11:14:38;;;;;;;0.70;0.70;;;29.10;51.70;;;;;;4957782;29;20667;-73
2022/07/21 11:17:05;;;;;;;0.73;0.73;;;29.00;52.20;;;;;;4957991;29;20455;-72
2022/07/21 11:19:42;;;;;;;0.80;0.70;;;29.20;53.00;;;;;;4957992;29;20450;-73
2022/07/21 11:22:15;;;;;;;0.70;0.70;;;29.10;53.60;;;;;;4957924;29;20529;-73
2022/07/21 11:24:44;;;;;;;0.70;0.70;;;29.20;53.40;;;;;;4957839;29;20481;-73
2022/07/21 11:27:13;;;;;;;0.70;0.70;;;29.30;51.70;;;;;;4957847;29;20513;-73
2022/07/21 11:29:41;;;;;;;0.80;0.70;;;29.50;51.90;;;;;;4957835;29;20915;-73
2022/07/21 11:32:09;;;;;;;0.70;0.70;;;29.80;50.70;;;;;;4957677;29;20474;-73
2022/07/21 11:34:41;;;;;;;0.80;0.80;;;29.80;49.80;;;;;;4957720;29;20452;-73
2022/07/21 11:37:09;;;;;;;1.33;0.60;;;29.90;50.50;;;;;;4957657;29;20486;-73
2022/07/21 11:39:37;;;;;;;0.70;0.70;;;30.00;49.10;;;;;;4957568;29;20658;-73
2022/07/21 11:42:06;;;;;;;0.70;0.70;;;29.90;48.90;;;;;;4957536;29;20521;-73
2022/07/21 11:44:32;;;;;;;0.70;0.60;;;29.80;49.70;;;;;;4957417;29;20487;-72
2022/07/21 11:47:01;;;;;;;0.70;0.60;;;29.90;49.00;;;;;;4957497;29;20207;-73
2022/07/21 11:49:28;;;;;;;0.80;0.60;;;30.00;48.60;;;;;;4957452;29;20483;-74
2022/07/21 11:51:57;;;;;;;0.70;0.60;;;29.70;48.30;;;;;;4957347;29;20470;-74
2022/07/21 11:54:27;;;;;;;0.70;0.60;;;29.80;47.60;;;;;;4957347;29;20509;-73
2022/07/21 11:56:57;;;;;;;0.80;0.73;;;29.40;48.10;;;;;;4957269;29;20502;-73
2022/07/21 11:59:23;;;;;;;0.70;0.70;;;29.70;49.70;;;;;;4957216;29;20215;-73
2022/07/21 12:01:55;;;;;;;0.80;0.70;;;29.80;48.10;;;;;;4956876;29;20491;-73
2022/07/21 12:04:35;;;;;;;0.70;0.60;;;29.80;47.20;;;;;;4955924;28;20187;-74
2022/07/21 12:07:03;;;;;;;0.80;0.63;;;30.10;48.10;;;;;;4957177;29;20490;-73
2022/07/21 12:09:31;;;;;;;0.70;0.60;;;30.00;47.10;;;;;;4957073;29;20454;-76
2022/07/21 12:11:59;;;;;;;1.00;0.70;;;30.00;47.30;;;;;;4957013;29;20470;-75
2022/07/21 12:14:47;;;;;;;0.90;0.70;;;30.10;47.80;;;;;;4956717;29;20943;-76
2022/07/21 12:17:16;;;;;;;0.70;0.63;;;29.90;46.90;;;;;;4957012;29;20463;-76
2022/07/21 12:19:43;;;;;;;0.70;0.60;;;29.60;47.60;;;;;;4956899;29;20443;-76
2022/07/21 12:22:10;;;;;;;0.70;0.70;;;29.50;48.00;;;;;;4957097;29;20970;-76
2022/07/21 12:24:55;;;;;;;0.70;0.70;;;29.60;49.10;;;;;;4956764;29;20459;-76
2022/07/21 12:27:23;;;;;;;0.80;0.60;;;29.90;46.50;;;;;;4956718;29;20505;-76
2022/07/21 12:29:50;;;;;;;0.70;0.70;;;30.20;47.30;;;;;;4956701;29;20454;-77
2022/07/21 12:32:42;;;;;;;0.70;0.60;;;30.00;46.50;;;;;;4956269;29;20467;-77
2022/07/21 12:35:21;;;;;;;0.70;0.60;;;30.20;46.10;;;;;;4956636;29;20254;-76
2022/07/21 12:38:00;;;;;;;0.80;0.70;;;30.20;45.20;;;;;;4956220;29;20851;-73
2022/07/21 12:40:28;;;;;;;0.80;0.80;;;30.10;46.20;;;;;;4956462;29;20487;-74
2022/07/21 12:43:15;;;;;;;0.70;0.60;;;30.10;48.00;;;;;;4956483;29;20455;-73
2022/07/21 12:46:00;;;;;;;0.70;0.63;;;30.20;48.30;;;;;;4956409;29;20470;-74
2022/07/21 12:48:29;;;;;;;0.70;0.70;;;30.40;47.80;;;;;;4956407;29;20482;-74
2022/07/21 12:53:55;;;;;;;0.70;0.63;;;30.70;49.00;;;;;;4955034;29;20451;-74
2022/07/21 12:56:24;;;;;;;0.70;0.63;;;30.80;46.60;;;;;;4956190;29;20530;-74
2022/07/21 12:58:54;;;;;;;0.90;0.77;;;30.80;46.40;;;;;;4956194;29;20455;-74
2022/07/21 13:01:21;;;;;;;0.90;0.70;;;30.90;48.80;;;;;;4955900;29;20367;-74
2022/07/21 13:03:49;;;;;;;0.70;0.70;;;30.70;47.80;;;;;;4955814;29;20962;-74
2022/07/21 13:06:16;;;;;;;0.80;0.60;;;30.60;47.60;;;;;;4955970;29;20533;-74
2022/07/21 13:08:44;;;;;;;0.70;0.60;;;30.50;49.70;;;;;;4955960;29;20454;-74
2022/07/21 13:11:13;;;;;;;0.70;0.70;;;30.50;48.40;;;;;;4955957;29;20474;-74
2022/07/21 13:13:40;;;;;;;0.70;0.70;;;30.80;48.40;;;;;;4955938;29;20446;-74
2022/07/21 13:16:09;;;;;;;0.80;0.70;;;31.10;46.80;;;;;;4955468;28;20453;-74
2022/07/21 13:18:36;;;;;;;0.80;0.80;;;31.10;46.70;;;;;;4955862;29;20447;-74
2022/07/21 13:21:04;;;;;;;0.70;0.70;;;31.00;47.70;;;;;;4955752;29;20470;-74
2022/07/21 13:23:30;;;;;;;0.70;0.60;;;31.10;46.80;;;;;;4955808;29;20450;-74
2022/07/21 13:25:57;;;;;;;1.10;0.70;;;31.40;47.70;;;;;;4955664;29;20482;-74
2022/07/21 13:28:24;;;;;;;0.70;0.70;;;31.80;46.20;;;;;;4955668;29;20462;-74
2022/07/21 13:30:51;;;;;;;0.70;0.60;;;31.90;46.20;;;;;;4956531;29;20884;-74
2022/07/21 13:33:19;;;;;;;0.77;0.77;;;31.90;45.30;;;;;;4955600;29;20458;-74
2022/07/21 13:35:46;;;;;;;0.70;0.63;;;32.00;46.00;;;;;;4955579;29;20443;-74
2022/07/21 13:38:14;;;;;;;0.70;0.70;;;31.90;46.40;;;;;;4955566;29;20447;-74
2022/07/21 13:40:43;;;;;;;1.23;0.70;;;31.90;46.80;;;;;;4955474;29;20457;-74
2022/07/21 13:43:09;;;;;;;0.70;0.60;;;31.80;47.60;;;;;;4955446;29;20446;-74
2022/07/21 13:45:36;;;;;;;0.70;0.70;;;31.60;47.90;;;;;;4955364;29;20251;-74
2022/07/21 13:48:03;;;;;;;0.70;0.60;;;31.80;48.00;;;;;;4955405;29;20509;-74
2022/07/21 13:50:31;;;;;;;1.00;0.70;;;31.90;49.00;;;;;;4955289;29;20443;-74
2022/07/21 13:52:57;;;;;;;0.87;0.87;;;31.90;48.30;;;;;;4955348;29;20478;-74
2022/07/21 13:55:24;;;;;;;0.70;0.70;;;31.90;49.10;;;;;;4955356;29;20447;-74
2022/07/21 13:57:51;;;;;;;0.90;0.60;;;31.90;49.40;;;;;;4955318;29;20447;-74
2022/07/21 14:00:18;;;;;;;0.70;0.67;;;32.00;47.90;;;;;;4955257;29;20455;-74
2022/07/21 14:02:44;;;;;;;0.80;0.70;;;32.00;48.70;;;;;;4954716;29;20534;-74
2022/07/21 14:05:11;;;;;;;0.87;0.80;;;32.00;47.70;;;;;;4955023;29;20486;-74
2022/07/21 14:07:39;;;;;;;0.70;0.67;;;31.90;48.40;;;;;;4954858;29;21018;-74
2022/07/21 14:10:07;;;;;;;0.70;0.70;;;31.70;49.10;;;;;;4955137;29;20450;-74
2022/07/21 14:12:34;;;;;;;0.70;0.67;;;31.70;48.40;;;;;;4955134;29;20466;-74
2022/07/21 14:15:01;;;;;;;0.70;0.70;;;32.00;49.30;;;;;;4955222;29;20454;-74
2022/07/21 14:17:28;;;;;;;0.70;0.70;;;32.10;47.00;;;;;;4955165;29;20207;-74
2022/07/21 14:19:55;;;;;;;0.90;0.67;;;32.00;46.20;;;;;;4955171;29;20828;-74
2022/07/21 14:22:22;;;;;;;0.73;0.70;;;31.90;47.50;;;;;;4955038;29;20498;-74
2022/07/21 14:27:34;;;;;;;0.90;0.67;;;31.80;46.80;;;;;;4957747;28;20402;-73
2022/07/21 14:30:01;;;;;;;0.80;0.80;;;31.50;46.50;;;;;;4958921;29;20494;-73
2022/07/21 14:32:28;;;;;;;0.80;0.70;;;30.90;47.80;;;;;;4958552;29;20553;-74
2022/07/21 14:34:55;;;;;;;0.73;0.73;;;30.80;48.40;;;;;;4958818;29;20501;-74
2022/07/21 14:37:22;;;;;;;0.70;0.70;;;31.00;49.20;;;;;;4958802;29;20790;-74
2022/07/21 14:39:50;;;;;;;0.80;0.70;;;31.20;49.40;;;;;;4958681;29;20447;-74
2022/07/21 14:42:17;;;;;;;1.00;0.80;;;31.10;50.20;;;;;;4958615;29;20462;-73
2022/07/21 14:44:45;;;;;;;0.77;0.77;;;31.00;49.70;;;;;;4958727;29;20501;-74
2022/07/21 14:47:12;;;;;;;0.87;0.80;;;31.00;49.30;;;;;;4958532;29;20529;-74
2022/07/21 14:49:38;;;;;;;0.70;0.70;;;31.10;49.10;;;;;;4958566;29;20458;-73
2022/07/21 14:52:06;;;;;;;0.70;0.67;;;31.10;49.70;;;;;;4958138;29;21002;-73
2022/07/21 14:54:33;;;;;;;0.83;0.80;;;31.20;48.70;;;;;;4958492;29;20449;-74
2022/07/21 14:57:01;;;;;;;0.70;0.70;;;31.20;49.10;;;;;;4958123;29;20803;-73
2022/07/21 14:59:27;;;;;;;0.70;0.60;;;31.30;49.40;;;;;;4958380;29;20451;-74
2022/07/21 15:01:54;;;;;;;0.70;0.70;;;31.20;49.80;;;;;;4957896;29;21006;-74
2022/07/21 15:04:22;;;;;;;0.80;0.80;;;31.20;48.90;;;;;;4957916;29;20856;-74
2022/07/21 15:06:49;;;;;;;0.70;0.70;;;31.10;48.90;;;;;;4958218;29;20494;-73
2022/07/21 15:09:16;;;;;;;0.80;0.80;;;31.00;48.50;;;;;;4958178;29;20446;-73
2022/07/21 15:11:43;;;;;;;0.80;0.70;;;31.00;48.60;;;;;;4957775;29;20646;-74
2022/07/21 15:14:11;;;;;;;0.70;0.70;;;31.10;49.30;;;;;;4959227;29;20871;-75
2022/07/21 15:16:38;;;;;;;0.80;0.70;;;31.10;47.50;;;;;;4958014;29;20450;-74
2022/07/21 15:19:04;;;;;;;0.73;0.60;;;31.00;48.60;;;;;;4957960;29;20450;-74
2022/07/21 15:21:31;;;;;;;0.70;0.67;;;30.80;48.90;;;;;;4957932;29;20474;-74
2022/07/21 15:23:58;;;;;;;0.73;0.73;;;30.80;49.40;;;;;;4957937;29;20451;-73
2022/07/21 15:26:24;;;;;;;0.70;0.60;;;30.90;47.80;;;;;;4957800;29;20478;-74
2022/07/21 15:28:51;;;;;;;1.00;0.70;;;31.10;48.00;;;;;;4957798;29;20450;-73
2022/07/21 15:31:19;;;;;;;0.70;0.60;;;31.40;48.40;;;;;;4957766;29;20466;-73
2022/07/21 15:33:46;;;;;;;0.77;0.70;;;31.70;49.30;;;;;;4957477;29;20942;-73
2022/07/21 15:36:12;;;;;;;0.70;0.70;;;31.80;47.10;;;;;;4957781;29;20521;-73
2022/07/21 15:38:39;;;;;;;0.80;0.80;;;32.10;47.00;;;;;;4956388;28;20478;-74
2022/07/21 15:41:07;;;;;;;0.70;0.70;;;32.10;46.20;;;;;;4957644;29;20474;-74
2022/07/21 15:43:33;;;;;;;0.70;0.70;;;32.10;46.90;;;;;;4957586;29;20447;-75
2022/07/21 15:46:00;;;;;;;0.70;0.70;;;31.70;46.10;;;;;;4957445;29;20483;-74
2022/07/21 15:48:28;;;;;;;0.70;0.67;;;31.60;46.80;;;;;;4957466;29;20459;-73
2022/07/21 15:50:55;;;;;;;0.70;0.70;;;31.60;46.40;;;;;;4957355;29;20882;-73
2022/07/21 15:53:22;;;;;;;0.70;0.70;;;31.60;47.00;;;;;;4957121;29;20510;-74
2022/07/21 15:55:48;;;;;;;0.70;0.70;;;31.70;47.50;;;;;;4957370;29;20505;-73
2022/07/21 15:58:15;;;;;;;0.90;0.80;;;31.80;47.80;;;;;;4957295;29;20510;-74
2022/07/21 16:00:41;;;;;;;0.70;0.60;;;32.00;47.90;;;;;;4957128;29;20443;-74